Latest Weather Observations for Gladstone Airport

IDQ60801

Issued at 11:35 pm EST Friday 18 April 2014 (issued every 30 minutes, with the page automatically refreshed every 10 minutes)

About weather observations | Map of weather stations | Latest weather observations for QLD | Other Formats
Station Details ID: 039326 Name: GLADSTONE AIRPORT Lat: -23.87 Lon: 151.22 Height: 16.6 m
Data from the previous 72 hours. | See also: Recent months at Gladstone Airport
Date/Time
EST
Temp
°C
App
Temp
°C
Dew
Point
Rel
Hum
%
Delta-T
°C
Wind Press
QNH
hPa
Press
MSL
hPa
Rain
since 9 am
mm
Dir
 
Spd
km/h
Gust
km/h
Spd
kts
Gust
kts
18/11:30pm 20.6 22.3 18.4 87 1.4 SSW 7 9 4 5 1016.6 - 0.0
18/11:00pm 20.9 22.7 18.7 87 1.4 SSW 7 9 4 5 1016.7 - 0.0
18/10:30pm 21.2 23.9 18.6 85 1.6 WNW 2 6 1 3 1016.8 - 0.0
18/10:00pm 21.6 24.7 18.6 83 1.9 CALM 0 0 0 0 1016.8 - 0.0
18/09:30pm 22.0 25.1 18.6 81 2.1 CALM 0 0 0 0 1016.8 - 0.0
18/09:00pm 22.6 25.8 18.8 79 2.4 CALM 0 0 0 0 1016.6 1016.5 0.0
18/08:30pm 23.0 24.9 18.5 76 2.8 N 6 7 3 4 1016.5 - 0.0
18/08:00pm 23.5 26.0 19.0 76 2.9 N 4 7 2 4 1016.4 - 0.0
18/07:30pm 23.6 25.6 19.1 76 2.9 N 7 9 4 5 1016.1 - 0.0
18/07:00pm 23.9 25.1 19.0 74 3.1 NW 11 13 6 7 1015.5 - 0.0
18/06:30pm 24.7 26.1 18.6 69 3.9 N 9 13 5 7 1015.1 - 0.0
18/06:00pm 25.1 25.9 18.1 65 4.4 N 11 13 6 7 1014.7 1014.6 0.0
18/05:30pm 25.6 26.0 17.3 60 5.2 N 11 17 6 9 1014.4 - 0.0
18/05:00pm 26.3 26.4 17.4 58 5.6 N 13 17 7 9 1013.9 - 0.0
18/04:30pm 26.7 27.0 18.0 59 5.5 NNE 13 19 7 10 1013.6 - 0.0
18/04:00pm 26.8 26.8 18.1 59 5.5 NE 15 20 8 11 1013.4 - 0.0
18/03:30pm 26.8 26.4 18.1 59 5.5 NE 17 19 9 10 1013.2 - 0.0
18/03:00pm 27.9 27.4 17.7 53 6.5 NNE 17 20 9 11 1013.1 1013.0 0.0
18/02:30pm 27.7 27.8 16.6 50 6.9 NE 11 19 6 10 1013.3 - 0.0
18/02:00pm 29.1 28.0 12.1 35 9.9 WNW 9 17 5 9 1013.7 - 0.0
18/01:30pm 28.7 28.2 12.6 37 9.4 SW 7 13 4 7 1013.9 - 0.0
18/01:00pm 28.3 27.9 13.0 39 9.0 SW 7 13 4 7 1014.2 - 0.0
18/12:30pm 28.2 27.0 12.9 38 9.0 S 11 17 6 9 1014.7 - 0.0
18/12:00pm 27.6 26.9 13.2 41 8.5 SW 9 13 5 7 1015.2 1015.1 0.0
18/11:30am 27.9 28.4 16.5 50 7.1 WNW 9 17 5 9 1015.8 - 0.0
18/11:00am 27.1 27.5 16.4 52 6.6 S 9 15 5 8 1016.2 - 0.0
18/10:30am 25.9 26.0 16.5 56 5.8 SSW 11 17 6 9 1016.8 - 0.0
18/10:00am 25.2 26.3 18.9 68 4.0 SW 11 17 6 9 1017.0 - 0.0
18/09:30am 24.7 26.3 20.0 75 3.0 SW 11 15 6 8 1017.1 - 0.0
18/09:00am 23.7 25.0 19.4 77 2.7 SW 11 17 6 9 1017.2 1017.1 5.2
18/08:30am 22.7 24.1 19.5 82 2.0 SW 11 15 6 8 1017.1 - 5.2
18/08:00am 21.4 23.3 19.0 86 1.5 SSW 7 11 4 6 1017.0 - 5.2
18/07:30am 20.2 21.9 18.1 88 1.3 SW 6 9 3 5 1017.0 - 5.2
18/07:00am 19.7 21.8 18.2 91 0.9 SW 4 9 2 5 1016.8 - 5.2
18/06:30am 19.0 21.7 17.8 93 0.7 CALM 0 0 0 0 1016.8 - 5.2
18/06:00am 18.8 20.1 17.6 93 0.7 SW 7 9 4 5 1016.7 1016.6 5.2
18/05:30am 18.7 20.2 17.5 93 0.7 S 6 9 3 5 1016.6 - 5.2
18/05:00am 18.8 20.1 17.6 93 0.7 SW 7 9 4 5 1016.4 - 5.2
18/04:30am 18.9 19.9 17.7 93 0.7 SSW 9 11 5 6 1016.3 - 5.0
18/04:00am 19.2 19.9 18.0 93 0.7 SSW 11 17 6 9 1016.2 - 5.0
18/03:30am 19.2 20.3 18.0 93 0.7 SW 9 13 5 7 1016.1 - 5.0
18/03:00am 19.2 20.3 18.0 93 0.7 SSW 9 13 5 7 1016.1 1016.0 5.0
18/02:30am 19.3 20.8 18.1 93 0.7 SSW 7 11 4 6 1016.3 - 5.0
18/02:00am 19.5 20.7 18.3 93 0.7 SW 9 13 5 7 1016.4 - 5.0
18/01:30am 19.6 21.2 18.3 92 0.8 SSW 7 11 4 6 1016.6 - 5.0
18/01:00am 19.7 21.8 18.2 91 0.9 SSW 4 6 2 3 1016.8 - 5.0
18/12:30am 20.2 23.3 18.7 91 0.9 CALM 0 0 0 0 1016.9 - 5.0
18/12:00am 20.2 22.6 18.9 92 0.8 S 4 7 2 4 1017.1 1017.0 5.0
 
Date/Time
EST
Temp
°C
App
Temp
°C
Dew
Point
Rel
Hum
%
Delta-T
°C
Wind Press
QNH
hPa
Press
MSL
hPa
Rain
since 9 am
mm
Dir
 
Spd
km/h
Gust
km/h
Spd
kts
Gust
kts
17/11:30pm 20.2 21.7 18.9 92 0.8 SSW 9 11 5 6 1017.3 - 5.0
17/11:00pm 20.6 23.8 18.9 90 1.1 CALM 0 0 0 0 1017.3 - 5.0
17/10:30pm 20.8 22.9 19.3 91 0.9 SSW 7 9 4 5 1017.5 - 5.0
17/10:00pm 20.8 22.5 19.3 91 0.9 SSW 9 11 5 6 1017.5 - 5.0
17/09:30pm 21.0 22.8 19.5 91 1.0 SW 9 11 5 6 1017.5 - 5.0
17/09:00pm 21.3 24.4 19.6 90 1.1 S 2 7 1 4 1017.4 1017.3 5.0
17/08:30pm 21.5 25.1 19.8 90 1.1 CALM 0 0 0 0 1017.2 - 5.0
17/08:00pm 21.6 24.4 19.7 89 1.2 S 4 9 2 5 1017.1 - 5.0
17/07:30pm 21.8 25.5 19.9 89 1.2 CALM 0 4 0 2 1016.6 - 5.0
17/07:00pm 21.6 23.8 19.7 89 1.2 S 7 7 4 4 1016.3 - 5.0
17/06:30pm 21.9 24.7 19.6 87 1.5 E 4 7 2 4 1015.7 - 5.0
17/06:00pm 22.2 24.3 19.0 82 2.0 NE 6 9 3 5 1015.5 1015.4 5.0
17/05:37pm 22.2 22.8 17.8 76 2.7 NE 11 13 6 7 1015.4 - 5.0
17/05:30pm 22.5 23.9 18.7 79 2.4 ENE 9 13 5 7 1015.2 - 4.8
17/05:11pm 22.0 21.4 18.4 80 2.3 S 19 33 10 18 1015.5 - 1.2
17/05:00pm 25.4 26.3 19.3 69 3.9 ENE 13 19 7 10 1015.0 - 0.2
17/04:30pm 25.6 25.2 19.0 67 4.2 NNE 19 24 10 13 1014.5 - 0.2
17/04:00pm 25.9 25.7 18.6 64 4.6 NE 17 22 9 12 1014.3 - 0.2
17/03:30pm 26.3 25.8 18.7 63 4.9 NE 19 22 10 12 1014.1 - 0.2
17/03:00pm 26.4 25.8 18.5 62 5.0 NE 19 24 10 13 1014.2 1014.1 0.2
17/02:30pm 27.1 27.1 18.9 61 5.3 NE 17 24 9 13 1014.4 - 0.2
17/02:00pm 27.0 26.7 19.1 62 5.1 N 19 24 10 13 1014.6 - 0.2
17/01:30pm 26.6 26.1 18.7 62 5.0 ENE 19 24 10 13 1015.0 - 0.2
17/01:00pm 27.0 26.9 18.8 60 5.3 NNE 17 24 9 13 1015.4 - 0.2
17/12:30pm 27.5 28.0 19.3 61 5.3 N 15 20 8 11 1015.8 - 0.2
17/12:00pm 27.8 29.1 19.3 60 5.5 N 11 17 6 9 1016.3 1016.2 0.2
17/11:30am 27.7 29.7 19.2 60 5.5 NNW 7 13 4 7 1016.9 - 0.2
17/11:00am 26.4 28.0 18.3 61 5.1 N 7 15 4 8 1017.5 - 0.2
17/10:30am 25.8 27.2 18.7 65 4.5 NE 9 15 5 8 1017.8 - 0.2
17/10:00am 25.9 27.5 19.1 66 4.4 NE 9 13 5 7 1017.9 - 0.2
17/09:30am 25.7 27.7 19.1 67 4.2 N 7 11 4 6 1018.0 - 0.0
17/09:00am 25.1 28.0 19.9 73 3.4 S 4 9 2 5 1018.0 1017.9 0.0
17/08:30am 23.5 25.8 19.8 80 2.4 SW 7 11 4 6 1018.0 - 0.0
17/08:00am 22.3 24.4 19.3 83 1.9 SW 7 9 4 5 1017.7 - 0.0
17/07:30am 21.3 22.9 19.2 88 1.3 SSW 9 13 5 7 1017.6 - 0.0
17/07:00am 20.3 22.2 19.0 92 0.8 S 7 11 4 6 1017.2 - 0.0
17/06:30am 19.7 21.0 18.5 93 0.7 SSW 9 13 5 7 1016.9 - 0.0
17/06:00am 19.6 21.3 18.6 94 0.6 SSW 7 11 4 6 1016.6 1016.5 0.0
17/05:30am 19.6 21.0 18.6 94 0.6 SSW 9 13 5 7 1016.4 - 0.0
17/05:00am 20.0 21.8 18.7 92 0.8 SW 7 11 4 6 1016.2 - 0.0
17/04:30am 20.0 21.9 18.5 91 0.9 SSW 6 7 3 4 1015.8 - 0.0
17/04:00am 20.3 22.6 18.6 90 1.1 SW 4 7 2 4 1015.6 - 0.0
17/03:30am 20.4 22.3 18.9 91 0.9 SSW 7 9 4 5 1015.6 - 0.0
17/03:00am 20.5 23.5 18.4 88 1.3 CALM 0 0 0 0 1015.5 1015.4 0.0
17/02:30am 20.7 23.8 18.6 88 1.3 CALM 0 0 0 0 1015.5 - 0.0
17/02:00am 21.0 24.2 18.8 87 1.4 CALM 0 0 0 0 1015.5 - 0.0
17/01:30am 21.1 23.0 18.9 87 1.4 S 7 9 4 5 1015.7 - 0.0
17/01:00am 21.4 23.9 19.0 86 1.5 S 4 7 2 4 1015.9 - 0.0
17/12:30am 21.8 24.0 19.2 85 1.6 SSW 6 9 3 5 1016.2 - 0.0
17/12:00am 21.6 23.6 19.2 86 1.5 SSW 7 9 4 5 1016.3 1016.2 0.0
 
Date/Time
EST
Temp
°C
App
Temp
°C
Dew
Point
Rel
Hum
%
Delta-T
°C
Wind Press
QNH
hPa
Press
MSL
hPa
Rain
since 9 am
mm
Dir
 
Spd
km/h
Gust
km/h
Spd
kts
Gust
kts
16/11:30pm 21.5 23.5 19.2 87 1.5 SSW 7 9 4 5 1016.1 - 0.0
16/11:00pm 21.8 23.8 19.2 85 1.6 SSW 7 9 4 5 1016.2 - 0.0
16/10:30pm 22.1 24.4 19.5 85 1.7 S 6 9 3 5 1016.2 - 0.0
16/10:00pm 22.1 24.5 19.6 86 1.6 SSW 6 7 3 4 1016.1 - 0.0
16/09:30pm 22.4 26.1 19.9 86 1.6 CALM 0 2 0 1 1016.0 - 0.0
16/09:00pm 22.3 24.6 19.5 84 1.8 SW 6 7 3 4 1015.9 1015.8 0.0
16/08:30pm 22.6 26.0 19.4 82 2.0 CALM 0 0 0 0 1015.8 - 0.0
16/08:00pm 23.0 25.2 19.2 79 2.4 S 6 7 3 4 1015.7 - 0.0
16/07:30pm 23.3 25.8 19.0 77 2.7 SSE 4 7 2 4 1015.4 - 0.0
16/07:00pm 23.4 25.9 19.1 77 2.7 NNW 4 9 2 5 1015.1 - 0.0
16/06:30pm 23.6 25.5 18.9 75 3.0 NE 7 9 4 5 1014.7 - 0.0
16/06:00pm 23.5 24.4 18.4 73 3.2 NNE 11 17 6 9 1014.3 1014.2 0.0
16/05:30pm 24.7 24.7 18.2 67 4.1 ENE 15 19 8 10 1013.7 - 0.0
16/05:00pm 24.9 24.9 18.1 66 4.3 NE 15 22 8 12 1013.6 - 0.0
16/04:30pm 25.0 24.6 18.0 65 4.4 NE 17 24 9 13 1013.5 - 0.0
16/04:00pm 25.6 25.1 17.8 62 4.9 NE 17 24 9 13 1013.3 - 0.0
16/03:30pm 26.0 25.4 17.6 60 5.3 NE 17 20 9 11 1013.2 - 0.0
16/03:00pm 26.0 25.4 17.6 60 5.3 NE 17 20 9 11 1013.4 1013.3 0.0
16/02:30pm 26.2 26.1 17.8 60 5.3 NE 15 20 8 11 1013.4 - 0.0
16/02:00pm 26.3 25.8 17.9 60 5.3 NNE 17 24 9 13 1013.5 - 0.0
16/01:30pm 26.3 25.3 17.6 58 5.5 ENE 19 24 10 13 1013.9 - 0.0
16/01:00pm 26.7 26.5 17.5 57 5.8 ENE 15 24 8 13 1014.2 - 0.0
16/12:30pm 26.5 27.5 17.8 58 5.5 N 9 15 5 8 1014.7 - 0.0
16/12:00pm 25.9 26.6 17.0 58 5.5 ENE 9 15 5 8 1015.0 1014.9 0.0
16/11:30am 25.8 25.9 17.4 59 5.3 NNE 13 22 7 12 1015.5 - 0.0
16/11:00am 25.7 26.4 17.9 62 4.9 E 11 17 6 9 1015.9 - 0.0
16/10:30am 25.7 26.5 17.4 60 5.2 SSE 9 15 5 8 1016.3 - 0.0
16/10:00am 24.9 27.0 17.1 62 4.8 N 2 6 1 3 1016.7 - 0.0
16/09:30am 25.2 26.3 17.1 60 5.0 E 7 13 4 7 1016.8 - 0.0
16/09:00am 24.5 25.6 16.7 61 4.8 E 6 11 3 6 1016.8 1016.7 0.0
16/08:30am 23.7 24.6 16.7 65 4.3 SSE 7 13 4 7 1016.8 - 0.0
16/08:00am 22.9 24.4 16.7 68 3.8 S 4 9 2 5 1016.5 - 0.0
16/07:30am 21.7 22.6 16.6 73 3.1 SSW 7 11 4 6 1016.4 - 0.0
16/07:00am 20.5 21.3 16.3 77 2.5 S 7 9 4 5 1016.1 - 0.0
16/06:30am 19.5 20.2 16.2 81 2.0 SSW 7 9 4 5 1015.8 - 0.0
16/06:00am 19.4 20.3 16.1 81 2.0 S 6 7 3 4 1015.4 1015.3 0.0
16/05:30am 19.7 20.6 16.2 80 2.1 S 6 7 3 4 1015.3 - 0.0
16/05:00am 19.9 21.0 16.7 82 1.9 S 6 7 3 4 1015.2 - 0.0
16/04:30am 20.2 21.5 17.0 82 1.9 S 6 7 3 4 1014.9 - 0.0
16/04:00am 21.0 21.7 16.2 74 2.9 SSE 7 11 4 6 1014.6 - 0.0
16/03:30am 21.3 22.4 16.7 75 2.8 SSE 6 9 3 5 1014.5 - 0.0
16/03:00am 21.3 22.5 16.9 76 2.7 SSE 6 13 3 7 1014.7 1014.6 0.0
16/02:30am 21.1 22.2 17.1 78 2.4 S 7 9 4 5 1014.7 - 0.0
16/02:00am 21.5 23.0 17.5 78 2.5 S 6 9 3 5 1014.9 - 0.0
16/01:30am 21.8 23.2 17.8 78 2.5 S 7 11 4 6 1015.1 - 0.0
16/01:00am 22.0 23.4 17.8 77 2.6 SSE 7 13 4 7 1015.2 - 0.0
16/12:30am 22.3 23.4 18.1 77 2.6 SSE 9 13 5 7 1015.5 - 0.0
16/12:00am 22.6 23.9 18.4 77 2.6 SSE 9 15 5 8 1015.7 1015.6 0.0

Other Formats:

Comma delimited format used in spreadsheet applications
http://www.bom.gov.au/fwo/IDQ60801/IDQ60801.94381.axf

JavaScript Object Notation format (JSON) in row-major order
http://www.bom.gov.au/fwo/IDQ60801/IDQ60801.94381.json